Lawndale, Pennsylvania
Current Conditions -  °F | °C
As of 3:54 AM on Monday 24 Nov 2014 (Local Time) from KPNE Reporting Station
Light Rain Light Rain  
Wind Chill: 64°   Ceiling: 1200
Heat Index: 64°   Visibility: 9mi
Dew Point: 58°   Wind: 14mph
Humidity: 80%   Direction: 160°SSE
Pressure: 29.71"   Gusts: 29mph
Location:  40.063°N, 75.0797°W
Report Text: KPNE 240854Z AUTO 16012G25KT 9SM -RA OVC012 18/14 A2971 RMK AO2 SLP061 P0009 60032 T01780144 56056 TSNO
Loading
Personal Weather Stations






























Interactive Weather Map New forecast layout! Learn more

10-Day Weather Forecast

Advertisements
Track Severe Weather on mobile